Terminal Aerodrome Forecast
Issued by NWS Mobile, AL

Home | Current Version | Previous Version | Text Only | Print | Product List | Glossary On
Versions: 1 2 3 4 5 6 7 8 9 10 11 12 13 14 15 16 17 18 19 20 21 22 23 24 25 26 27 28
000
FTUS44 KMOB 271900 AAA
TAFPNS
TAF AMD
KPNS 271901Z 2719/2818 10006KT P6SM VCTS SCT004CB OVC007
      TEMPO 2719/2722 2SM SHRA BKN008
     FM272200 13009KT 6SM -SHRA VCTS SCT008CB OVC035
     FM280400 12008KT 4SM -SHRA BR OVC020=

USA.gov is the U.S. government's official web portal to all federal, state and local government web resources and services.